Terminal Aerodrome Forecast
Issued by NWS Charleston, SC

Home | Current Version | Previous Version | Text Only | Print | Product List | Glossary On
Versions: 1 2 3 4 5 6 7 8 9 10 11 12 13 14 15
149
FTUS42 KCHS 240209 AAA
TAFSAV
TAF AMD
KSAV 240209Z 2402/2424 16010KT P6SM OVC008
     FM240800 20006KT P6SM OVC008
     FM241100 23008KT P6SM SCT010 BKN035
     FM241600 24009KT P6SM SCT040=

USA.gov is the U.S. government's official web portal to all federal, state and local government web resources and services.